Time;durP1;ratioP1;P1;durP2;ratioP2;P2;SDS_P1;SDS_P2;PMS_P1;PMS_P2;Temp;Humidity;BMP_temperature;BMP_pressure;BME280_temperature;BME280_humidity;BME280_pressure;Samples;Min_cycle;Max_cycle;Signal;HPM_P1;HPM_P2
2022/10/07 00:00:39;;;;;;;;;15.33;13.67;;;;;11.34;80.28;102382.34;5050746;28;45354;-75
2022/10/07 00:03:04;;;;;;;;;15.33;14.33;;;;;11.29;80.06;102371.28;5052331;28;45495;-76
2022/10/07 00:05:29;;;;;;;;;15.00;13.33;;;;;11.30;79.81;102369.44;5033846;28;46419;-76
2022/10/07 00:07:55;;;;;;;;;13.67;13.67;;;;;11.31;80.26;102369.31;5051758;28;46180;-76
2022/10/07 00:10:20;;;;;;;;;18.33;13.67;;;;;11.31;80.21;102369.31;5067754;28;45536;-75
2022/10/07 00:12:45;;;;;;;;;15.00;14.00;;;;;11.33;80.04;102371.84;5034213;28;45292;-76
2022/10/07 00:15:11;;;;;;;;;15.00;13.33;;;;;11.25;80.00;102369.88;5052193;28;45322;-75
2022/10/07 00:17:37;;;;;;;;;11.00;11.00;;;;;11.25;80.08;102375.19;5051873;28;46535;-75
2022/10/07 00:20:02;;;;;;;;;11.00;11.00;;;;;11.18;80.40;102363.41;5033681;28;45285;-75
2022/10/07 00:22:27;;;;;;;;;13.67;13.33;;;;;11.20;80.53;102364.13;5051968;28;45251;-76
2022/10/07 00:24:53;;;;;;;;;14.33;14.00;;;;;11.15;80.52;102361.88;5033730;28;45917;-75
2022/10/07 00:27:18;;;;;;;;;15.67;14.33;;;;;11.06;80.33;102352.06;5051967;28;46617;-75
2022/10/07 00:29:43;;;;;;;;;16.00;13.00;;;;;11.16;80.20;102363.56;5051541;28;45250;-75
2022/10/07 00:32:08;;;;;;;;;14.00;14.00;;;;;11.13;80.26;102355.84;5052275;28;45367;-75
2022/10/07 00:34:34;;;;;;;;;12.33;12.33;;;;;11.08;80.04;102345.63;5051850;28;45564;-75
2022/10/07 00:36:59;;;;;;;;;12.00;10.67;;;;;11.09;80.62;102354.44;5051428;28;45484;-75
2022/10/07 00:39:24;;;;;;;;;13.00;12.00;;;;;11.01;80.55;102338.34;5033797;28;45431;-76
2022/10/07 00:41:51;;;;;;;;;12.33;12.33;;;;;11.09;80.50;102359.78;5051961;28;45462;-76
2022/10/07 00:44:35;;;;;;;;;13.33;12.00;;;;;11.06;80.31;102347.59;5033633;28;47493;-75
2022/10/07 00:47:05;;;;;;;;;14.00;14.00;;;;;11.05;80.38;102350.38;5051544;28;45468;-75
2022/10/07 00:49:39;;;;;;;;;11.67;11.67;;;;;10.99;80.28;102339.31;5033576;28;45469;-76
2022/10/07 00:52:05;;;;;;;;;12.00;12.00;;;;;10.94;80.19;102330.91;5051330;28;45344;-75
2022/10/07 00:54:30;;;;;;;;;11.67;11.00;;;;;10.92;80.43;102335.50;5066870;28;46205;-76
2022/10/07 00:56:58;;;;;;;;;14.00;11.33;;;;;10.85;80.53;102331.72;5051277;28;45409;-76
2022/10/07 00:59:23;;;;;;;;;12.00;10.67;;;;;10.89;80.06;102330.47;5033486;28;45410;-76
2022/10/07 01:01:49;;;;;;;;;11.00;10.67;;;;;10.86;80.53;102339.56;5051511;28;45410;-76
2022/10/07 01:04:16;;;;;;;;;9.00;9.00;;;;;10.81;80.32;102323.16;5033198;28;45943;-76
2022/10/07 01:06:44;;;;;;;;;11.67;10.00;;;;;10.81;80.18;102323.16;5051140;28;46103;-76
2022/10/07 01:09:11;;;;;;;;;12.33;12.00;;;;;10.79;80.64;102322.47;5040221;28;45276;-76
2022/10/07 01:11:58;;;;;;;;;9.67;8.67;;;;;10.82;80.50;102324.03;5020133;28;45192;-76
2022/10/07 01:14:38;;;;;;;;;9.33;8.33;;;;;10.72;80.75;102313.38;5019738;28;46339;-76
2022/10/07 01:17:14;;;;;;;;;12.67;11.67;;;;;10.71;80.53;102320.50;5037846;28;46205;-76
2022/10/07 01:20:07;;;;;;;;;7.00;7.00;;;;;10.73;80.86;102312.38;5037814;28;45284;-76
2022/10/07 01:22:53;;;;;;;;;10.33;10.33;;;;;10.71;80.91;102317.84;5019877;28;45358;-76
2022/10/07 01:25:49;;;;;;;;;14.67;12.67;;;;;10.69;80.80;102311.81;5024735;28;45409;-76
2022/10/07 01:28:23;;;;;;;;;9.67;9.67;;;;;10.62;80.60;102307.19;5037530;28;45395;-76
2022/10/07 01:30:56;;;;;;;;;10.33;9.00;;;;;10.63;80.79;102311.53;5037908;28;45370;-76
2022/10/07 01:33:30;;;;;;;;;9.67;9.00;;;;;10.54;80.86;102292.72;5019779;28;45412;-76
2022/10/07 01:36:02;;;;;;;;;10.33;10.00;;;;;10.61;80.96;102311.66;5037644;28;45431;-76
2022/10/07 01:38:32;;;;;;;;;10.00;8.67;;;;;10.58;80.78;102301.28;5037339;28;45551;-76
2022/10/07 01:41:07;;;;;;;;;9.00;9.00;;;;;10.46;80.81;102281.94;5037765;28;45274;-76
2022/10/07 01:43:33;;;;;;;;;10.33;10.00;;;;;10.51;80.99;102281.53;5019501;28;45368;-77
2022/10/07 01:46:00;;;;;;;;;10.00;9.33;;;;;10.49;81.44;102276.38;5019761;28;47075;-76
2022/10/07 01:48:25;;;;;;;;;8.00;8.00;;;;;10.46;81.03;102280.16;5037340;28;45775;-76
2022/10/07 01:50:52;;;;;;;;;12.67;11.00;;;;;10.50;81.00;102287.84;5019590;28;45373;-76
2022/10/07 01:53:43;;;;;;;;;8.00;8.00;;;;;10.48;81.08;102280.81;5019504;28;45430;-76
2022/10/07 01:56:23;;;;;;;;;10.67;8.33;;;;;10.45;81.22;102275.78;5025811;28;45521;-76
2022/10/07 01:59:29;;;;;;;;;9.33;9.33;;;;;10.44;81.30;102266.09;5019104;28;45658;-76
2022/10/07 02:01:55;;;;;;;;;10.00;9.00;;;;;10.42;81.66;102270.69;5106413;27;45350;-76
2022/10/07 02:04:59;;;;;;;;;8.67;8.67;;;;;10.42;81.83;102262.72;5038954;27;45424;-76
2022/10/07 02:07:42;;;;;;;;;9.67;8.67;;;;;10.42;81.69;102267.22;5036151;28;45826;-76
2022/10/07 02:10:26;;;;;;;;;10.67;10.67;;;;;10.36;81.70;102256.16;5007053;28;48612;-76
2022/10/07 02:13:03;;;;;;;;;8.00;8.00;;;;;10.31;81.46;102250.41;5019122;28;45312;-76
2022/10/07 02:15:46;;;;;;;;;12.00;12.00;;;;;10.33;81.03;102245.78;5037368;28;45239;-76
2022/10/07 02:18:14;;;;;;;;;9.33;8.00;;;;;10.30;81.53;102247.88;5037146;28;45498;-76
2022/10/07 02:20:44;;;;;;;;;7.67;7.67;;;;;10.27;81.23;102240.19;5018000;28;46337;-76
2022/10/07 02:23:13;;;;;;;;;7.33;7.33;;;;;10.28;81.25;102253.34;5018848;28;45275;-77
2022/10/07 02:25:44;;;;;;;;;8.00;8.00;;;;;10.27;81.51;102240.19;5037319;28;45353;-76
2022/10/07 02:28:13;;;;;;;;;9.00;7.67;;;;;10.20;81.38;102224.78;5036829;28;45244;-76
2022/10/07 02:30:41;;;;;;;;;7.67;7.67;;;;;10.18;81.16;102221.41;5036939;28;45368;-76
2022/10/07 02:33:08;;;;;;;;;9.00;9.00;;;;;10.15;81.01;102220.84;5036960;28;45341;-76
2022/10/07 02:35:53;;;;;;;;;7.00;7.00;;;;;10.20;81.52;102229.25;5037081;28;45411;-76
2022/10/07 02:38:20;;;;;;;;;7.00;7.00;;;;;10.16;81.49;102222.53;5036737;28;45390;-76
2022/10/07 02:40:52;;;;;;;;;6.67;6.67;;;;;10.17;81.28;102224.19;5052492;28;46267;-77
2022/10/07 02:43:27;;;;;;;;;8.67;6.67;;;;;10.14;81.39;102225.31;5018749;28;45570;-76
2022/10/07 02:46:09;;;;;;;;;9.00;8.00;;;;;10.07;81.34;102208.22;5019060;28;45581;-76
2022/10/07 02:48:42;;;;;;;;;9.00;9.00;;;;;10.05;81.44;102208.38;5018639;28;45453;-76
2022/10/07 02:51:17;;;;;;;;;9.00;9.00;;;;;10.03;81.63;102212.97;5037002;28;45471;-76
2022/10/07 02:53:48;;;;;;;;;9.33;8.00;;;;;10.02;81.55;102203.31;5036658;28;45570;-76
2022/10/07 02:56:14;;;;;;;;;11.00;7.33;;;;;9.98;81.95;102201.91;5036839;28;45427;-76
2022/10/07 02:58:44;;;;;;;;;7.00;6.67;;;;;10.03;81.70;102205.00;5036381;28;45386;-76
2022/10/07 03:01:16;;;;;;;;;5.00;5.00;;;;;10.04;81.74;102204.03;5036595;28;47163;-77
2022/10/07 03:03:42;;;;;;;;;8.00;7.33;;;;;10.01;81.56;102208.75;5036616;28;45173;-76
2022/10/07 03:06:08;;;;;;;;;7.00;7.00;;;;;9.97;81.58;102197.59;5036503;28;45734;-76
2022/10/07 03:08:33;;;;;;;;;6.00;6.00;;;;;9.95;81.60;102195.06;5064322;27;46230;-76
2022/10/07 03:10:59;;;;;;;;;9.00;6.67;;;;;9.94;81.64;102188.06;5036473;28;45536;-76
2022/10/07 03:13:25;;;;;;;;;9.00;9.00;;;;;9.87;81.63;102181.59;5036553;28;45340;-76
2022/10/07 03:15:50;;;;;;;;;7.67;7.00;;;;;9.93;81.63;102197.00;5018864;28;45469;-76
2022/10/07 03:18:27;;;;;;;;;10.00;10.00;;;;;9.90;81.77;102181.34;5036243;28;45537;-76
2022/10/07 03:20:56;;;;;;;;;5.67;5.67;;;;;9.91;81.83;102183.00;5036628;28;45481;-76
2022/10/07 03:23:23;;;;;;;;;9.67;8.00;;;;;9.88;82.05;102191.25;5036264;28;45332;-77
2022/10/07 03:25:50;;;;;;;;;7.33;7.33;;;;;9.87;81.69;102192.22;5036714;28;45379;-76
2022/10/07 03:28:17;;;;;;;;;9.00;7.00;;;;;9.81;82.10;102174.16;5036244;28;45450;-76
2022/10/07 03:30:42;;;;;;;;;8.33;5.67;;;;;9.76;81.82;102171.09;5018178;28;46158;-77
2022/10/07 03:33:08;;;;;;;;;6.00;6.00;;;;;9.80;82.07;102183.09;5036166;28;45231;-77
2022/10/07 03:35:33;;;;;;;;;8.00;6.67;;;;;9.80;82.22;102185.78;5051928;28;45273;-76
2022/10/07 03:37:58;;;;;;;;;8.00;7.67;;;;;9.79;81.98;102179.59;5036142;28;45269;-76
2022/10/07 03:40:23;;;;;;;;;10.00;9.67;;;;;9.76;82.32;102174.56;5035975;28;45215;-77
2022/10/07 03:42:49;;;;;;;;;7.67;6.67;;;;;9.71;82.60;102172.34;5018249;28;46185;-77
2022/10/07 03:45:14;;;;;;;;;9.33;8.00;;;;;9.75;82.56;102180.03;5035854;28;45271;-77
2022/10/07 03:47:40;;;;;;;;;8.33;8.00;;;;;9.71;82.70;102174.97;5036248;28;45423;-76
2022/10/07 03:50:05;;;;;;;;;7.00;7.00;;;;;9.70;82.47;102170.63;5035998;28;45411;-77
2022/10/07 03:52:31;;;;;;;;;6.00;6.00;;;;;9.70;82.65;102170.63;5036067;28;45337;-76
2022/10/07 03:54:56;;;;;;;;;7.00;6.33;;;;;9.69;82.26;102173.41;5036988;28;45394;-77
2022/10/07 04:00:06;;;;;;;;;11.67;8.67;;;;;9.63;82.41;102169.47;5035923;28;45749;-77
2022/10/07 04:02:31;;;;;;;;;9.67;8.00;;;;;9.59;82.50;102168.94;5050977;28;45835;-76
2022/10/07 04:04:57;;;;;;;;;7.00;7.00;;;;;9.64;82.43;102176.47;5035876;28;45268;-77
2022/10/07 04:07:22;;;;;;;;;7.00;7.00;;;;;9.64;82.49;102162.38;5014306;28;46969;-76
2022/10/07 04:09:48;;;;;;;;;8.33;8.00;;;;;9.64;82.43;102173.81;5034645;28;45862;-77
2022/10/07 04:12:13;;;;;;;;;6.33;5.33;;;;;9.63;82.26;102172.13;5035885;28;45214;-76
2022/10/07 04:14:38;;;;;;;;;7.33;7.33;;;;;9.63;82.57;102171.28;5017755;28;45401;-76
2022/10/07 04:17:04;;;;;;;;;10.33;6.00;;;;;9.63;82.38;102163.31;5035631;28;45271;-76
2022/10/07 04:19:29;;;;;;;;;7.67;7.00;;;;;9.54;82.28;102154.34;5017473;28;47375;-76
2022/10/07 04:21:55;;;;;;;;;6.67;6.33;;;;;9.58;82.42;102158.44;5035427;28;45288;-77
2022/10/07 04:24:21;;;;;;;;;9.00;6.00;;;;;9.57;82.22;102164.69;5035955;28;45355;-76
2022/10/07 04:26:46;;;;;;;;;8.00;8.00;;;;;9.54;82.24;102163.16;5035203;28;45507;-76
2022/10/07 04:29:11;;;;;;;;;7.00;7.00;;;;;9.50;82.28;102155.59;5017158;28;47459;-76
2022/10/07 04:31:37;;;;;;;;;9.00;7.33;;;;;9.43;81.89;102148.16;5017272;28;45409;-76
2022/10/07 04:34:02;;;;;;;;;8.00;7.00;;;;;9.47;82.02;102160.22;5017913;27;45322;-76
2022/10/07 04:36:27;;;;;;;;;9.33;9.33;;;;;9.40;82.45;102150.25;5035052;28;45459;-76
2022/10/07 04:38:52;;;;;;;;;4.00;4.00;;;;;9.39;81.77;102152.03;5035374;28;46072;-76
2022/10/07 04:41:18;;;;;;;;;7.00;7.00;;;;;9.41;82.27;102155.41;5035458;28;45354;-77
2022/10/07 04:43:43;;;;;;;;;7.33;7.33;;;;;9.40;82.64;102143.09;5018677;28;45329;-76
2022/10/07 04:46:12;;;;;;;;;7.33;7.00;;;;;9.39;82.39;102146.75;5020383;28;45441;-76
2022/10/07 04:48:37;;;;;;;;;7.00;7.00;;;;;9.34;82.00;102141.00;5020509;28;47131;-76
2022/10/07 04:51:08;;;;;;;;;6.33;5.33;;;;;9.34;82.55;102146.31;5038320;28;45406;-76
2022/10/07 04:53:35;;;;;;;;;6.00;6.00;;;;;9.33;82.04;102148.13;5020229;28;45327;-76
2022/10/07 04:56:01;;;;;;;;;4.67;4.33;;;;;9.29;82.54;102141.41;5038242;28;45296;-76
2022/10/07 04:58:28;;;;;;;;;6.33;6.00;;;;;9.31;82.32;102143.91;5038143;28;45800;-76
2022/10/07 05:00:55;;;;;;;;;7.33;7.00;;;;;9.29;82.23;102148.50;5038049;28;45350;-77
2022/10/07 05:03:23;;;;;;;;;7.67;6.67;;;;;9.25;82.84;102139.13;5038429;28;45314;-77
2022/10/07 05:05:50;;;;;;;;;7.67;7.00;;;;;9.28;82.66;102150.31;5037583;28;45369;-77
2022/10/07 05:08:18;;;;;;;;;10.67;10.67;;;;;9.27;82.87;102142.47;5037762;28;45275;-77
2022/10/07 05:10:44;;;;;;;;;7.00;7.00;;;;;9.30;83.09;102145.72;5038179;28;45702;-77
2022/10/07 05:13:13;;;;;;;;;7.33;6.33;;;;;9.31;82.85;102138.63;5038002;28;45356;-77
2022/10/07 05:15:53;;;;;;;;;10.33;9.00;;;;;9.27;82.96;102134.50;5037917;28;45520;-76
2022/10/07 05:18:20;;;;;;;;;9.00;8.67;;;;;9.27;83.26;102139.81;5037923;28;46210;-77
2022/10/07 05:20:47;;;;;;;;;11.67;11.67;;;;;9.27;83.30;102139.81;5037894;28;45297;-76
2022/10/07 05:23:14;;;;;;;;;5.67;5.67;;;;;9.25;83.26;102136.47;5020031;28;45319;-77
2022/10/07 05:25:40;;;;;;;;;9.67;9.00;;;;;9.25;83.18;102139.13;5038118;28;45304;-77
2022/10/07 05:28:05;;;;;;;;;13.67;11.33;;;;;9.27;83.36;102139.81;5019558;28;46229;-77
2022/10/07 05:30:31;;;;;;;;;9.33;8.00;;;;;9.28;83.41;102146.81;5037818;28;45311;-76
2022/10/07 05:32:56;;;;;;;;;6.67;6.67;;;;;9.26;83.31;102146.97;5038012;28;45187;-77
2022/10/07 05:35:22;;;;;;;;;11.00;9.00;;;;;9.27;82.92;102140.66;5037958;28;45330;-76
2022/10/07 05:37:52;;;;;;;;;9.67;8.00;;;;;9.28;83.08;102138.88;5037693;28;46144;-77
2022/10/07 05:40:17;;;;;;;;;13.67;12.33;;;;;9.19;83.35;102125.41;5037947;28;45481;-76
2022/10/07 05:42:43;;;;;;;;;11.67;9.33;;;;;9.23;83.39;102131.31;5038023;28;45270;-77
2022/10/07 05:45:09;;;;;;;;;9.33;9.33;;;;;9.26;83.19;102133.69;5037393;28;45301;-76
2022/10/07 05:47:34;;;;;;;;;10.67;10.67;;;;;9.21;83.09;102126.13;5037530;28;46690;-77
2022/10/07 05:50:00;;;;;;;;;11.67;10.00;;;;;9.26;82.88;102128.38;5019652;28;45338;-77
2022/10/07 05:52:25;;;;;;;;;9.33;7.67;;;;;9.21;83.40;102123.47;5019722;28;45253;-77
2022/10/07 05:54:50;;;;;;;;;9.00;9.00;;;;;9.18;82.93;102128.19;5037561;28;45241;-77
2022/10/07 05:57:16;;;;;;;;;12.33;10.67;;;;;9.16;83.12;102136.28;5037310;27;45424;-77
2022/10/07 05:59:42;;;;;;;;;9.00;9.00;;;;;9.13;82.78;102130.41;5037525;28;45343;-76
2022/10/07 06:02:13;;;;;;;;;7.00;6.00;;;;;9.12;82.92;102134.84;5037661;28;45346;-77
2022/10/07 06:04:42;;;;;;;;;7.67;7.67;;;;;9.11;83.20;102130.53;5019328;28;46402;-77
2022/10/07 06:07:08;;;;;;;;;9.00;8.00;;;;;9.07;83.01;102127.28;5036927;28;46563;-77
2022/10/07 06:15:01;;;;;;;;;8.67;8.67;;;;;9.02;83.29;102128.66;5026025;28;45222;-77
2022/10/07 06:17:26;;;;;;;;;9.00;8.67;;;;;9.07;83.12;102137.91;5039398;27;45975;-76
2022/10/07 06:19:52;;;;;;;;;9.33;8.00;;;;;9.09;83.19;102135.13;5113254;27;45257;-77
2022/10/07 06:22:17;;;;;;;;;10.33;8.00;;;;;9.06;83.55;102130.06;5038694;28;45151;-76
2022/10/07 06:24:42;;;;;;;;;8.67;8.00;;;;;9.03;83.29;102125.03;5037867;28;45309;-77
2022/10/07 06:27:08;;;;;;;;;9.33;9.33;;;;;9.09;83.67;102133.31;5020448;28;48233;-76
2022/10/07 06:29:33;;;;;;;;;9.67;9.33;;;;;9.03;83.75;102123.22;5038558;28;45271;-76
2022/10/07 06:31:58;;;;;;;;;8.67;8.67;;;;;9.10;83.47;102126.22;5038088;27;45370;-76
2022/10/07 06:34:24;;;;;;;;;10.67;10.67;;;;;9.14;83.68;102134.72;5020808;27;45549;-77
2022/10/07 06:36:49;;;;;;;;;14.00;10.33;;;;;9.16;83.76;102130.16;5039073;28;45424;-77
2022/10/07 06:39:16;;;;;;;;;12.00;12.00;;;;;9.19;83.81;102130.72;5036260;28;45393;-76
2022/10/07 06:41:42;;;;;;;;;9.33;9.00;;;;;9.17;84.25;102127.38;5047543;27;45574;-77
2022/10/07 06:44:07;;;;;;;;;11.67;10.67;;;;;9.16;83.99;102132.78;5037111;28;45667;-77
2022/10/07 06:46:32;;;;;;;;;14.00;12.33;;;;;9.18;84.66;102126.38;5036928;28;46197;-75
2022/10/07 06:48:58;;;;;;;;;14.67;14.67;;;;;9.24;84.46;102132.97;5036943;28;45308;-75
2022/10/07 06:51:23;;;;;;;;;14.00;14.00;;;;;9.18;84.35;102117.56;5037162;28;45922;-75
2022/10/07 06:53:56;;;;;;;;;15.33;15.00;;;;;9.28;84.71;102131.72;5037055;28;45411;-75
2022/10/07 06:56:22;;;;;;;;;20.33;19.00;;;;;9.31;84.60;102130.66;5036662;28;46475;-75
2022/10/07 06:58:51;;;;;;;;;18.33;15.67;;;;;9.29;84.86;102128.13;5036834;28;45409;-75
2022/10/07 07:01:16;;;;;;;;;16.00;15.33;;;;;9.32;85.48;102130.53;5036694;28;45332;-75
2022/10/07 07:03:42;;;;;;;;;18.00;16.33;;;;;9.31;85.81;102123.50;5018545;28;46078;-75
2022/10/07 07:06:09;;;;;;;;;17.00;17.00;;;;;9.38;85.45;102123.00;5035452;28;46291;-75
2022/10/07 07:08:35;;;;;;;;;21.00;18.00;;;;;9.40;85.65;102123.72;5036397;28;45369;-75
2022/10/07 07:13:53;;;;;;;;;16.33;16.33;;;;;9.50;86.34;102139.66;5036464;28;45455;-76
2022/10/07 07:16:19;;;;;;;;;23.33;20.67;;;;;9.53;85.91;102137.59;5036197;28;45340;-75
2022/10/07 07:18:50;;;;;;;;;18.33;18.33;;;;;9.62;86.05;102140.41;5036500;28;45683;-75
2022/10/07 07:21:15;;;;;;;;;22.33;22.00;;;;;9.60;85.79;102127.28;5018487;28;45324;-75
2022/10/07 07:23:40;;;;;;;;;19.67;17.67;;;;;9.63;85.93;102129.66;5036434;28;45230;-75
2022/10/07 07:26:06;;;;;;;;;20.00;17.67;;;;;9.71;86.03;102129.84;5034429;28;45283;-76
2022/10/07 07:28:32;;;;;;;;;24.00;21.00;;;;;9.74;86.43;102120.78;5036559;28;45260;-77
2022/10/07 07:30:57;;;;;;;;;28.67;28.00;;;;;9.75;86.27;102124.28;5037144;28;45299;-77
2022/10/07 07:33:22;;;;;;;;;32.50;28.00;;;;;9.81;86.16;102127.22;5028990;28;45341;-76
2022/10/07 07:35:49;;;;;;;;;26.67;25.67;;;;;9.90;86.41;102132.69;5015874;28;45465;-74
2022/10/07 07:38:14;;;;;;;;;39.25;32.25;;;;;9.96;86.65;102118.84;5033978;28;45828;-75
2022/10/07 07:40:39;;;;;;;;;42.00;34.25;;;;;10.02;86.52;102120.13;5036260;28;45319;-75
2022/10/07 07:43:06;;;;;;;;;46.50;38.25;;;;;10.13;86.76;102127.16;5036225;28;45612;-75
2022/10/07 07:45:35;;;;;;;;;49.50;40.00;;;;;10.21;86.90;102122.00;5018155;28;47377;-75
2022/10/07 07:48:00;;;;;;;;;43.75;36.75;;;;;10.25;86.97;102115.44;5035928;28;45317;-75
2022/10/07 07:50:26;;;;;;;;;44.75;36.50;;;;;10.31;86.95;102114.88;5036031;28;45242;-75
2022/10/07 07:52:55;;;;;;;;;42.50;33.75;;;;;10.38;87.00;102103.69;5035670;28;45847;-75
2022/10/07 07:55:22;;;;;;;;;39.50;34.50;;;;;10.47;86.75;102106.38;5035688;28;46284;-75
2022/10/07 07:57:48;;;;;;;;;40.00;34.50;;;;;10.57;86.93;102109.03;5035389;28;45439;-76
2022/10/07 08:00:15;;;;;;;;;32.25;27.50;;;;;10.56;86.99;102103.84;5035798;28;45211;-76
2022/10/07 08:02:41;;;;;;;;;30.00;27.00;;;;;10.67;87.20;102109.03;5035726;28;45471;-76
2022/10/07 08:05:06;;;;;;;;;28.00;26.00;;;;;10.71;87.32;102105.09;5035644;28;46402;-76
2022/10/07 08:07:34;;;;;;;;;42.25;34.50;;;;;10.78;87.58;102099.22;5059063;27;45360;-77
2022/10/07 08:09:59;;;;;;;;;43.25;36.00;;;;;10.80;87.57;102094.56;5015961;27;45380;-76
2022/10/07 08:12:24;;;;;;;;;46.50;36.50;;;;;10.89;87.81;102095.56;5035072;28;45620;-76
2022/10/07 08:14:51;;;;;;;;;55.00;44.75;;;;;10.96;87.56;102096.69;5035566;28;45434;-76
2022/10/07 08:17:16;;;;;;;;;66.75;51.25;;;;;11.04;87.57;102102.09;5035563;28;45447;-75
2022/10/07 08:19:41;;;;;;;;;64.25;50.00;;;;;11.05;87.73;102092.31;5038184;28;45319;-77
2022/10/07 08:22:08;;;;;;;;;61.00;48.00;;;;;11.16;87.68;102096.63;5039173;28;45346;-76
2022/10/07 08:24:33;;;;;;;;;62.25;48.25;;;;;11.23;87.81;102106.53;5036820;28;45716;-77
2022/10/07 08:26:59;;;;;;;;;57.00;45.50;;;;;11.27;87.96;102103.56;5038440;28;45386;-79
2022/10/07 08:29:24;;;;;;;;;56.75;45.25;;;;;11.36;88.07;102103.56;5038172;28;45213;-77
2022/10/07 08:31:50;;;;;;;;;58.75;47.00;;;;;11.46;88.20;102100.84;5020664;28;46729;-77
2022/10/07 08:34:15;;;;;;;;;56.25;46.00;;;;;11.50;88.24;102093.41;5038130;28;45404;-76
2022/10/07 08:36:45;;;;;;;;;58.50;47.25;;;;;11.56;88.53;102097.31;5036473;28;45345;-76
2022/10/07 08:39:11;;;;;;;;;49.50;39.25;;;;;11.60;88.63;102088.03;5037944;28;45297;-76
2022/10/07 08:41:55;;;;;;;;;53.25;43.00;;;;;11.73;88.83;102087.66;5020385;28;45851;-76
2022/10/07 08:44:31;;;;;;;;;55.00;42.00;;;;;11.80;89.10;102090.59;5038260;28;45400;-76
2022/10/07 08:46:56;;;;;;;;;57.50;44.00;;;;;11.88;89.03;102090.66;5020006;28;45899;-76
2022/10/07 08:49:31;;;;;;;;;50.50;41.50;;;;;11.95;88.99;102080.28;5038243;28;45494;-76
2022/10/07 08:52:02;;;;;;;;;47.25;38.25;;;;;11.99;89.07;102071.81;5037832;28;45349;-76
2022/10/07 08:54:32;;;;;;;;;47.50;37.75;;;;;12.07;88.87;102075.59;5053289;28;46769;-76
2022/10/07 08:57:11;;;;;;;;;48.25;38.00;;;;;12.13;89.15;102072.31;5037658;28;45322;-76
2022/10/07 08:59:43;;;;;;;;;39.00;35.00;;;;;12.21;89.02;102071.56;5019884;28;45301;-76
2022/10/07 09:02:16;;;;;;;;;38.50;31.50;;;;;12.31;89.24;102071.47;5037418;28;45290;-76
2022/10/07 09:04:56;;;;;;;;;41.67;34.00;;;;;12.39;89.00;102074.19;5037398;28;46352;-76
2022/10/07 09:07:54;;;;;;;;;33.67;31.00;;;;;12.47;88.94;102065.44;5037520;28;45295;-76
2022/10/07 09:10:30;;;;;;;;;14.67;14.00;;;;;12.55;88.84;102068.19;5027496;28;45313;-76
2022/10/07 09:13:02;;;;;;;;;11.33;10.33;;;;;12.57;88.43;102052.84;5019619;28;47323;-76
2022/10/07 09:15:33;;;;;;;;;10.00;10.00;;;;;12.70;88.17;102056.94;5037802;28;46609;-76
2022/10/07 09:18:08;;;;;;;;;9.33;7.33;;;;;12.75;88.12;102047.47;5037881;28;45313;-75
2022/10/07 09:20:41;;;;;;;;;8.67;8.00;;;;;12.85;88.40;102041.22;5038006;28;45229;-75
2022/10/07 09:23:14;;;;;;;;;11.33;9.33;;;;;12.94;88.08;102039.41;5018735;27;47242;-76
2022/10/07 09:25:41;;;;;;;;;6.67;5.33;;;;;13.06;87.90;102038.16;5037105;28;46247;-76
2022/10/07 09:28:12;;;;;;;;;8.00;7.00;;;;;13.20;87.79;102042.06;5019444;28;45808;-76
2022/10/07 09:30:38;;;;;;;;;7.00;7.00;;;;;13.29;87.89;102026.91;5019427;28;45314;-76
2022/10/07 09:33:12;;;;;;;;;6.00;6.00;;;;;13.41;87.85;102026.63;5037567;28;45361;-77
2022/10/07 09:35:37;;;;;;;;;7.33;3.33;;;;;13.52;87.51;102023.69;5037824;28;46573;-76
2022/10/07 09:38:08;;;;;;;;;8.33;5.00;;;;;13.56;87.27;102002.84;5037328;28;45315;-77
2022/10/07 09:43:31;;;;;;;;;5.00;3.33;;;;;13.86;85.94;102011.25;5037216;28;45333;-76
2022/10/07 09:45:59;;;;;;;;;6.33;4.67;;;;;13.97;85.62;102005.56;5036880;28;46238;-75
2022/10/07 09:48:28;;;;;;;;;4.33;2.67;;;;;14.12;84.78;101994.19;5035879;28;45447;-75
2022/10/07 09:51:14;;;;;;;;;2.00;2.00;;;;;14.33;84.11;102000.88;5019716;28;45400;-76
2022/10/07 09:53:57;;;;;;;;;3.00;3.00;;;;;14.52;84.10;101991.69;5036214;28;45265;-75
2022/10/07 09:56:42;;;;;;;;;5.67;4.33;;;;;14.66;82.50;101986.63;5019159;28;48148;-77
2022/10/07 09:59:20;;;;;;;;;4.00;1.00;;;;;14.86;81.82;101990.63;5006696;28;45370;-76
2022/10/07 10:01:59;;;;;;;;;2.00;2.00;;;;;15.02;81.15;101987.03;5019444;28;45374;-76
2022/10/07 10:04:35;;;;;;;;;3.00;2.00;;;;;15.19;80.90;101986.13;5037434;28;45482;-77
2022/10/07 10:07:15;;;;;;;;;2.33;1.67;;;;;15.23;80.26;101976.72;5015725;28;47294;-78
2022/10/07 10:09:51;;;;;;;;;3.33;2.00;;;;;15.32;79.75;101981.03;5034920;28;45462;-77
2022/10/07 10:12:18;;;;;;;;;2.67;2.00;;;;;15.35;78.88;101969.13;5053062;28;45313;-77
2022/10/07 10:14:48;;;;;;;;;1.33;1.33;;;;;15.40;79.49;101972.97;5037000;28;45445;-77
2022/10/07 10:17:35;;;;;;;;;2.00;1.33;;;;;15.41;78.17;101971.13;5037205;28;45347;-75
2022/10/07 10:20:22;;;;;;;;;4.67;4.33;;;;;15.47;78.12;101964.25;5034976;28;45375;-76
2022/10/07 10:22:47;;;;;;;;;1.00;1.00;;;;;15.43;76.85;101952.19;5021770;27;45449;-77
2022/10/07 10:28:05;;;;;;;;;4.33;2.00;;;;;15.71;76.57;101957.84;5036983;28;45344;-78
2022/10/07 10:30:34;;;;;;;;;2.00;2.00;;;;;15.73;76.83;101955.00;5037151;28;45281;-77
2022/10/07 10:33:31;;;;;;;;;3.33;3.33;;;;;15.74;76.61;101954.81;5038676;28;44630;-76
2022/10/07 10:36:20;;;;;;;;;3.67;2.33;;;;;15.75;75.92;101947.63;5039756;27;45511;-77
2022/10/07 10:39:29;;;;;;;;;1.00;1.00;;;;;15.87;75.10;101934.63;5024005;28;45341;-76
2022/10/07 10:41:58;;;;;;;;;2.00;2.00;;;;;16.01;74.90;101924.97;5029609;28;45518;-75
2022/10/07 10:44:49;;;;;;;;;2.33;2.00;;;;;16.20;74.41;101928.16;5052188;28;45373;-75
2022/10/07 10:47:24;;;;;;;;;2.67;2.00;;;;;16.35;74.25;101917.44;5036507;28;45300;-74
2022/10/07 10:50:06;;;;;;;;;1.00;1.00;;;;;16.47;74.22;101923.19;5036757;28;45376;-75
2022/10/07 10:52:59;;;;;;;;;2.00;2.00;;;;;16.54;72.66;101908.00;5036350;28;45216;-74
2022/10/07 10:55:59;;;;;;;;;2.00;2.00;;;;;16.61;72.33;101913.47;5018773;28;45357;-75
2022/10/07 10:58:24;;;;;;;;;1.00;1.00;;;;;16.69;71.98;101901.78;5008788;28;46155;-75
2022/10/07 11:01:01;;;;;;;;;3.00;3.00;;;;;16.66;71.48;101903.84;5036182;28;45348;-75
2022/10/07 11:03:57;;;;;;;;;1.33;1.33;;;;;16.74;71.42;101896.72;5036825;28;45383;-76
2022/10/07 11:06:27;;;;;;;;;1.00;1.00;;;;;16.73;70.81;101884.31;5024981;28;45392;-75
2022/10/07 11:08:54;;;;;;;;;0.00;0.00;;;;;16.84;68.93;101897.25;5025722;28;45600;-76
2022/10/07 11:11:21;;;;;;;;;0.00;0.00;;;;;16.96;68.98;101899.44;5035701;28;45424;-76
2022/10/07 11:13:51;;;;;;;;;1.67;1.00;;;;;17.08;69.21;101892.59;5035154;28;45430;-75
2022/10/07 11:16:29;;;;;;;;;1.67;1.67;;;;;17.15;69.57;101882.75;5036818;28;45291;-76
2022/10/07 11:19:07;;;;;;;;;3.00;2.00;;;;;17.29;67.63;101878.34;5070034;27;45313;-75
2022/10/07 11:21:38;;;;;;;;;1.33;0.67;;;;;17.44;67.98;101879.28;5036038;28;46136;-75
2022/10/07 11:24:18;;;;;;;;;2.00;1.67;;;;;17.60;66.45;101865.59;5033845;28;45398;-75
2022/10/07 11:26:52;;;;;;;;;1.00;1.00;;;;;17.74;66.28;101863.84;5036182;28;45532;-74
2022/10/07 11:29:34;;;;;;;;;0.00;0.00;;;;;17.88;65.57;101854.03;5035501;28;45476;-75
2022/10/07 11:32:12;;;;;;;;;3.67;1.67;;;;;17.98;65.11;101853.66;5027032;28;45361;-76
2022/10/07 11:34:49;;;;;;;;;1.00;1.00;;;;;18.15;64.26;101851.53;5036170;28;45364;-75
2022/10/07 11:37:30;;;;;;;;;1.33;0.67;;;;;18.22;64.77;101845.34;5036359;28;45344;-75
2022/10/07 11:39:56;;;;;;;;;4.00;2.67;;;;;18.32;63.65;101845.00;5036345;28;46848;-76
2022/10/07 11:42:30;;;;;;;;;0.67;0.33;;;;;18.34;63.91;101838.38;5036151;28;45379;-74
2022/10/07 11:45:04;;;;;;;;;1.33;1.00;;;;;18.40;62.96;101836.75;5035959;28;45399;-75
2022/10/07 11:47:35;;;;;;;;;0.67;0.67;;;;;18.41;62.76;101824.97;5018358;28;45630;-75
2022/10/07 11:50:09;;;;;;;;;3.00;1.67;;;;;18.54;62.43;101827.72;5036100;28;45403;-74
2022/10/07 11:52:42;;;;;;;;;1.00;1.00;;;;;18.60;60.73;101828.78;5017670;28;46249;-75